Zim Chicago — A8SI9 — position and weather

sailwx.info

Track history (hours):
 
Tides and Currents Weather Stations Pressure Air Temp Water Temp Dewpoint Dewpoint Depression Visibility Wind Speed Wind Dir Waves Ship Positions

Zim Chicago

Last reported at 2015-May-26 11:31 UTC. Time now 2015-May-26 13:43 UTC.
Position N 38°30' W 016°38'.

Length 334 m; draft 11.4 m.

Type: Cargo ship. MMSI: 636014223.

Date/timePositionNaut miles runAvg speedWind from/ knotsBaromVisibWave heightAir tempDewpointWater temp
2015-May-26 11:31N 38°30' W 016°38'2719.6
2015-May-26 10:08N 38°22' W 016°05'1919.7
2015-May-26 09:08N 38°16' W 015°41'16619.3
2015-May-26 00:32N 37°18' W 012°25'1919.5
2015-May-25 23:33N 37°11' W 012°02'1919.4
2015-May-25 22:33N 37°04' W 011°39'1919.2
2015-May-25 21:33N 36°57' W 011°17'1919.3
2015-May-25 20:34N 36°50' W 010°55'2019.4
2015-May-25 19:33N 36°43' W 010°32'2119.3
2015-May-25 18:28N 36°36' W 010°07'3819.4
2015-May-25 16:30N 36°23' W 009°22'19219.3
2015-May-25 06:34N 35°60' W 005°27'2118.3
2015-May-25 05:24N 36°06' W 005°02'11719.4
2015-May-24 23:23N 36°23' W 002°38'1619.9
2015-May-24 22:33N 36°25' W 002°18'31519.5
2015-May-24 06:22N 37°25' E 004°09'2219.8
2015-May-24 05:14N 37°27' E 004°37'43318.7
2015-May-23 06:07N 36°41' E 013°37'1318.9
2015-May-23 05:24N 36°37' E 013°53'1619.1
2015-May-23 04:33N 36°31' E 014°12'1919.1
2015-May-23 03:33N 36°26' E 014°35'1918.9
2015-May-23 02:33N 36°21' E 014°57'64219.4
2015-May-21 17:25N 34°04' E 027°45'1719.3
2015-May-21 16:33N 34°00' E 028°05'26619.0
2015-May-21 02:34N 33°09' E 033°18'1918.8
2015-May-21 01:33N 33°05' E 033°40'1918.8
2015-May-21 00:31N 33°02' E 034°03'1919.4
2015-May-20 23:34N 32°59' E 034°25'1919.4
2015-May-20 22:34N 32°55' E 034°48'1212.5
2015-May-20 21:33N 32°49' E 035°01'0 0.0
2015-May-20 17:25N 32°49' E 035°01'0 0.0
2015-May-20 15:31N 32°49' E 035°01'0 0.0
2015-May-20 14:25N 32°49' E 035°01'0 0.0
2015-May-20 13:07N 32°49' E 035°01'0 0.0
2015-May-20 12:04N 32°49' E 035°01'0 0.0
2015-May-20 11:28N 32°49' E 035°01'0 0.0
2015-May-20 09:31N 32°49' E 035°01'0 0.0
2015-May-20 07:19N 32°49' E 035°01'0 0.1
2015-May-20 06:31N 32°49' E 035°01'0 0.0
2015-May-20 02:31N 32°49' E 035°01'4 1.3
2015-May-19 23:22N 32°52' E 034°57'3 2.8
2015-May-19 22:26N 32°53' E 034°55'7 8.6
2015-May-19 21:34N 32°54' E 034°46'1212.0
2015-May-19 20:34N 32°56' E 034°32'1211.8
2015-May-19 19:34N 32°59' E 034°18'1211.8
2015-May-19 18:34N 33°01' E 034°04'1110.8
2015-May-19 17:34N 32°55' E 033°53'1211.7
2015-May-19 16:34N 32°46' E 033°45'1211.9
2015-May-19 15:33N 32°37' E 033°36'1211.8
2015-May-19 14:34N 32°28' E 033°26'1211.6
2015-May-19 13:33N 32°19' E 033°17'1211.5
2015-May-19 12:33N 32°10' E 033°09'1211.7
2015-May-19 11:33N 32°01' E 032°60'1211.8
2015-May-19 10:33N 31°52' E 032°51'1711.8
2015-May-19 09:05N 31°41' E 032°35'612.1
2015-May-19 08:33N 31°38' E 032°29'1010.5
2015-May-19 07:34N 31°28' E 032°24'1212.1
2015-May-19 06:33N 31°16' E 032°21'  
Track history (hours):
 
Tides and Currents Weather Stations Pressure Air Temp Water Temp Dewpoint Dewpoint Depression Visibility Wind Speed Wind Dir Waves Ship Positions

Zim Chicago

Last reported at 2015-May-26 11:31 UTC. Time now 2015-May-26 13:43 UTC.
Position N 38°30' W 016°38'.

Length 334 m; draft 11.4 m.

Type: Cargo ship. MMSI: 636014223.

Date/timePositionNaut miles runAvg speedWind from/ knotsBaromVisibWave heightAir tempDewpointWater temp
2015-May-26 11:31N 38°30' W 016°38'2719.6
2015-May-26 10:08N 38°22' W 016°05'1919.7
2015-May-26 09:08N 38°16' W 015°41'16619.3
2015-May-26 00:32N 37°18' W 012°25'1919.5
2015-May-25 23:33N 37°11' W 012°02'1919.4
2015-May-25 22:33N 37°04' W 011°39'1919.2
2015-May-25 21:33N 36°57' W 011°17'1919.3
2015-May-25 20:34N 36°50' W 010°55'2019.4
2015-May-25 19:33N 36°43' W 010°32'2119.3
2015-May-25 18:28N 36°36' W 010°07'3819.4
2015-May-25 16:30N 36°23' W 009°22'19219.3
2015-May-25 06:34N 35°60' W 005°27'2118.3
2015-May-25 05:24N 36°06' W 005°02'11719.4
2015-May-24 23:23N 36°23' W 002°38'1619.9
2015-May-24 22:33N 36°25' W 002°18'31519.5
2015-May-24 06:22N 37°25' E 004°09'2219.8
2015-May-24 05:14N 37°27' E 004°37'43318.7
2015-May-23 06:07N 36°41' E 013°37'1318.9
2015-May-23 05:24N 36°37' E 013°53'1619.1
2015-May-23 04:33N 36°31' E 014°12'1919.1
2015-May-23 03:33N 36°26' E 014°35'1918.9
2015-May-23 02:33N 36°21' E 014°57'64219.4
2015-May-21 17:25N 34°04' E 027°45'1719.3
2015-May-21 16:33N 34°00' E 028°05'26619.0
2015-May-21 02:34N 33°09' E 033°18'1918.8
2015-May-21 01:33N 33°05' E 033°40'1918.8
2015-May-21 00:31N 33°02' E 034°03'1919.4
2015-May-20 23:34N 32°59' E 034°25'1919.4
2015-May-20 22:34N 32°55' E 034°48'1212.5
2015-May-20 21:33N 32°49' E 035°01'0 0.0
2015-May-20 17:25N 32°49' E 035°01'0 0.0
2015-May-20 15:31N 32°49' E 035°01'0 0.0
2015-May-20 14:25N 32°49' E 035°01'0 0.0
2015-May-20 13:07N 32°49' E 035°01'0 0.0
2015-May-20 12:04N 32°49' E 035°01'0 0.0
2015-May-20 11:28N 32°49' E 035°01'0 0.0
2015-May-20 09:31N 32°49' E 035°01'0 0.0
2015-May-20 07:19N 32°49' E 035°01'0 0.1
2015-May-20 06:31N 32°49' E 035°01'0 0.0
2015-May-20 02:31N 32°49' E 035°01'4 1.3
2015-May-19 23:22N 32°52' E 034°57'3 2.8
2015-May-19 22:26N 32°53' E 034°55'7 8.6
2015-May-19 21:34N 32°54' E 034°46'1212.0
2015-May-19 20:34N 32°56' E 034°32'1211.8
2015-May-19 19:34N 32°59' E 034°18'1211.8
2015-May-19 18:34N 33°01' E 034°04'1110.8
2015-May-19 17:34N 32°55' E 033°53'1211.7
2015-May-19 16:34N 32°46' E 033°45'1211.9
2015-May-19 15:33N 32°37' E 033°36'1211.8
2015-May-19 14:34N 32°28' E 033°26'1211.6
2015-May-19 13:33N 32°19' E 033°17'1211.5
2015-May-19 12:33N 32°10' E 033°09'1211.7
2015-May-19 11:33N 32°01' E 032°60'1211.8
2015-May-19 10:33N 31°52' E 032°51'1711.8
2015-May-19 09:05N 31°41' E 032°35'612.1
2015-May-19 08:33N 31°38' E 032°29'1010.5
2015-May-19 07:34N 31°28' E 032°24'1212.1
2015-May-19 06:33N 31°16' E 032°21'  

Dump ship's entire track history